createdAt,value
2022-12-22T00:54:34.591Z,24.12
2022-12-22T00:55:35.553Z,24.09
2022-12-22T00:56:35.564Z,24.09
2022-12-22T00:57:35.541Z,24.09
2022-12-22T00:58:35.560Z,24.09
2022-12-22T00:59:35.573Z,24.10
2022-12-22T01:00:35.531Z,24.10
2022-12-22T01:01:35.693Z,24.12
2022-12-22T01:02:35.694Z,24.10
2022-12-22T01:03:35.596Z,24.10
2022-12-22T01:04:35.486Z,24.12
2022-12-22T01:05:35.470Z,24.13
2022-12-22T01:06:35.472Z,24.14
2022-12-22T01:07:35.465Z,24.12
2022-12-22T01:08:35.451Z,24.17
2022-12-22T01:09:35.430Z,24.13
2022-12-22T01:10:35.450Z,24.17
2022-12-22T01:11:35.416Z,24.19
2022-12-22T01:12:35.408Z,24.17
2022-12-22T01:13:35.396Z,24.16
2022-12-22T01:14:35.408Z,24.19
2022-12-22T01:15:35.560Z,24.20
2022-12-22T01:16:35.451Z,24.20
2022-12-22T01:17:35.360Z,24.21
2022-12-22T01:18:35.354Z,24.21
2022-12-22T01:19:35.350Z,24.21
2022-12-22T01:20:35.343Z,24.23
2022-12-22T01:21:35.330Z,24.23
2022-12-22T01:22:35.320Z,24.23
2022-12-22T01:23:35.319Z,24.21
2022-12-22T01:24:35.320Z,24.23
2022-12-22T01:25:35.296Z,24.23
2022-12-22T01:26:35.316Z,24.24
2022-12-22T01:27:35.274Z,24.24
2022-12-22T01:28:35.271Z,24.27
2022-12-22T01:29:35.259Z,24.25
2022-12-22T01:30:35.362Z,24.25
2022-12-22T01:31:35.246Z,24.27
2022-12-22T01:32:35.244Z,24.27
2022-12-22T01:33:35.224Z,24.28
2022-12-22T01:34:35.213Z,24.30
2022-12-22T01:35:35.208Z,24.27
2022-12-22T01:36:35.204Z,24.27
2022-12-22T01:37:35.193Z,24.27
2022-12-22T02:03:35.035Z,24.31
2022-12-22T02:04:34.963Z,24.33
2022-12-22T02:05:34.957Z,24.30
2022-12-22T02:06:34.961Z,24.31
2022-12-22T02:07:34.937Z,24.30
2022-12-22T02:08:34.921Z,24.28
2022-12-22T02:09:34.917Z,24.30
2022-12-22T02:10:34.923Z,24.30
2022-12-22T02:11:34.897Z,24.28
2022-12-22T02:12:34.888Z,24.31
2022-12-22T02:13:34.880Z,24.31
2022-12-22T02:14:34.904Z,24.33
2022-12-22T02:15:34.904Z,24.31
2022-12-22T02:16:34.901Z,24.33
2022-12-22T02:17:34.851Z,24.34
2022-12-22T02:18:34.855Z,24.33
2022-12-22T02:19:34.834Z,24.31
2022-12-22T02:20:34.825Z,24.31
2022-12-22T02:21:34.808Z,24.31
2022-12-22T02:22:34.801Z,24.30
2022-12-22T02:23:34.798Z,24.33
2022-12-22T02:24:34.809Z,24.31
2022-12-22T02:25:34.779Z,24.33
2022-12-22T02:26:34.770Z,24.33
2022-12-22T02:27:34.759Z,24.31
2022-12-22T02:28:35.460Z,24.31
2022-12-22T02:29:34.741Z,24.31
2022-12-22T02:30:34.761Z,24.33
2022-12-22T02:31:34.798Z,24.33
2022-12-22T02:32:34.721Z,24.31
2022-12-22T02:33:34.709Z,24.34
2022-12-22T02:34:34.720Z,24.35
2022-12-22T02:35:34.694Z,24.35
2022-12-22T02:36:34.684Z,24.34
2022-12-22T02:37:34.692Z,24.34
2022-12-22T02:38:34.667Z,24.34
2022-12-22T02:39:34.655Z,24.35
2022-12-22T02:40:41.183Z,24.34
2022-12-22T02:41:34.647Z,24.33
2022-12-22T02:42:34.632Z,24.34
2022-12-22T02:43:34.626Z,24.34
2022-12-22T02:44:34.617Z,24.34
2022-12-22T02:46:34.680Z,24.33
2022-12-22T16:44:05.499Z,24.65
2022-12-22T16:44:27.419Z,24.65
